Time;durP1;ratioP1;P1;durP2;ratioP2;P2;SDS_P1;SDS_P2;PMS_P1;PMS_P2;Temp;Humidity;BMP_temperature;BMP_pressure;BME280_temperature;BME280_humidity;BME280_pressure;Samples;Min_cycle;Max_cycle;Signal;HPM_P1;HPM_P2
2021/06/16 00:02:02;;;;;;;14.00;5.82;;;21.80;99.90;;;;;;4347165;32;20468;-71
2021/06/16 00:04:29;;;;;;;14.87;6.00;;;21.80;99.90;;;;;;4336325;32;20083;-71
2021/06/16 00:06:55;;;;;;;11.12;5.65;;;21.80;99.90;;;;;;4347866;32;20061;-71
2021/06/16 00:09:22;;;;;;;14.07;6.05;;;21.80;99.90;;;;;;4347643;32;20526;-71
2021/06/16 00:11:48;;;;;;;14.68;6.60;;;21.90;99.90;;;;;;4335336;32;20520;-71
2021/06/16 00:14:20;;;;;;;14.55;6.40;;;21.80;99.90;;;;;;4347774;32;20507;-71
2021/06/16 00:16:46;;;;;;;16.85;7.43;;;21.90;99.90;;;;;;4335897;32;20078;-70
2021/06/16 00:19:13;;;;;;;16.58;7.78;;;21.80;99.90;;;;;;4310895;32;20070;-71
2021/06/16 00:21:40;;;;;;;17.42;7.03;;;21.50;99.90;;;;;;4311169;32;20081;-71
2021/06/16 00:24:07;;;;;;;16.80;8.32;;;21.30;99.90;;;;;;4311307;32;20502;-71
2021/06/16 00:26:34;;;;;;;18.23;6.97;;;21.20;99.90;;;;;;4335622;32;20097;-72
2021/06/16 00:29:00;;;;;;;16.25;7.32;;;21.10;99.90;;;;;;4323040;32;20067;-71
2021/06/16 00:31:27;;;;;;;13.52;5.78;;;21.10;99.90;;;;;;4347801;32;20074;-71
2021/06/16 00:33:53;;;;;;;11.60;6.15;;;20.90;99.90;;;;;;4347712;32;20058;-71
2021/06/16 00:36:20;;;;;;;8.82;5.05;;;20.90;99.90;;;;;;4347703;32;20152;-71
2021/06/16 00:38:46;;;;;;;10.48;5.15;;;21.00;99.90;;;;;;4347980;32;20153;-71
2021/06/16 00:41:12;;;;;;;10.02;5.07;;;20.90;99.90;;;;;;4336157;32;20094;-71
2021/06/16 00:43:39;;;;;;;7.70;4.85;;;20.90;99.90;;;;;;4363356;32;20082;-71
2021/06/16 00:46:05;;;;;;;10.88;4.80;;;20.90;99.90;;;;;;4338520;32;20152;-71
2021/06/16 00:48:31;;;;;;;8.43;4.62;;;20.80;99.90;;;;;;4338156;32;20070;-71
2021/06/16 00:50:57;;;;;;;7.68;4.43;;;20.70;99.90;;;;;;4350061;32;20100;-71
2021/06/16 00:53:23;;;;;;;7.78;4.40;;;20.70;99.90;;;;;;4350463;32;20082;-70
2021/06/16 00:55:49;;;;;;;5.78;4.22;;;20.60;99.90;;;;;;4338128;32;20078;-71
2021/06/16 00:58:15;;;;;;;7.70;4.45;;;20.60;99.90;;;;;;4350568;32;20073;-71
2021/06/16 01:00:50;;;;;;;6.70;4.65;;;20.70;99.90;;;;;;4363558;32;20079;-70
2021/06/16 01:03:28;;;;;;;8.65;5.05;;;20.70;99.90;;;;;;4364397;32;20098;-72
2021/06/16 01:06:11;;;;;;;8.45;4.80;;;20.80;99.90;;;;;;4364294;32;20070;-70
2021/06/16 01:08:40;;;;;;;6.70;4.30;;;20.90;99.90;;;;;;4338556;32;20066;-70
2021/06/16 01:11:09;;;;;;;8.80;4.32;;;20.80;99.90;;;;;;4350077;32;20070;-71
2021/06/16 01:13:52;;;;;;;7.72;3.90;;;20.90;99.90;;;;;;4338127;32;20063;-71
2021/06/16 01:16:40;;;;;;;7.57;3.83;;;20.80;99.90;;;;;;4337826;32;20580;-70
2021/06/16 01:19:17;;;;;;;9.57;3.87;;;20.90;99.90;;;;;;4350568;32;20587;-70
2021/06/16 01:21:46;;;;;;;7.15;3.95;;;21.10;99.90;;;;;;4327076;32;20163;-71
2021/06/16 01:24:17;;;;;;;7.68;4.03;;;21.10;99.90;;;;;;4326020;32;20081;-70
2021/06/16 01:26:45;;;;;;;6.75;4.00;;;21.10;99.90;;;;;;4338926;32;20070;-70
2021/06/16 01:29:35;;;;;;;7.62;3.83;;;21.10;99.90;;;;;;4347317;32;20077;-70
2021/06/16 01:32:01;;;;;;;5.00;3.90;;;21.20;99.90;;;;;;4340079;32;20067;-69
2021/06/16 01:34:28;;;;;;;8.05;3.83;;;20.90;99.90;;;;;;4330298;32;20066;-72
2021/06/16 01:36:56;;;;;;;7.05;4.03;;;20.90;99.90;;;;;;4326239;32;20528;-72
2021/06/16 01:39:26;;;;;;;8.40;4.15;;;20.90;99.90;;;;;;4356029;32;20074;-71
2021/06/16 01:41:54;;;;;;;7.87;4.40;;;21.10;99.90;;;;;;4360110;32;20073;-70
2021/06/16 01:44:20;;;;;;;9.23;4.05;;;21.20;99.90;;;;;;4352549;32;20090;-71
2021/06/16 01:46:48;;;;;;;10.63;4.20;;;21.30;99.90;;;;;;4351419;32;20062;-71
2021/06/16 01:49:14;;;;;;;7.12;3.95;;;21.40;99.90;;;;;;4326700;32;20158;-72
2021/06/16 01:51:41;;;;;;;7.93;4.07;;;21.40;99.90;;;;;;4337116;32;20121;-71
2021/06/16 01:54:10;;;;;;;7.30;4.40;;;21.50;99.90;;;;;;4336729;32;20094;-71
2021/06/16 01:56:37;;;;;;;10.00;4.47;;;21.50;99.90;;;;;;4336964;32;20410;-71
2021/06/16 01:59:03;;;;;;;8.23;4.15;;;21.70;99.90;;;;;;4336908;32;20086;-71
2021/06/16 02:01:30;;;;;;;12.07;4.07;;;21.90;99.90;;;;;;4336620;32;20059;-72
2021/06/16 02:03:57;;;;;;;6.05;3.60;;;22.20;99.90;;;;;;4336778;32;20085;-72
2021/06/16 02:06:28;;;;;;;7.50;3.10;;;22.50;99.90;;;;;;4337427;32;20075;-71
2021/06/16 02:08:54;;;;;;;4.60;2.97;;;22.60;99.90;;;;;;4336977;32;20071;-70
2021/06/16 02:11:22;;;;;;;6.45;2.80;;;22.70;99.90;;;;;;4337175;32;20094;-71
2021/06/16 02:13:54;;;;;;;5.68;3.03;;;22.90;99.90;;;;;;4336821;32;20086;-71
2021/06/16 02:16:32;;;;;;;9.55;3.08;;;23.10;97.90;;;;;;4334323;33;20075;-71
2021/06/16 02:19:19;;;;;;;6.82;3.00;;;23.20;97.70;;;;;;4334257;33;20074;-70
2021/06/16 02:21:46;;;;;;;4.70;2.62;;;23.20;97.70;;;;;;4299441;33;20091;-71
2021/06/16 02:24:12;;;;;;;5.30;2.72;;;23.20;95.10;;;;;;4321908;33;20144;-71
2021/06/16 02:26:38;;;;;;;6.25;2.83;;;23.30;94.20;;;;;;4322551;33;20077;-72
2021/06/16 02:29:08;;;;;;;5.93;2.70;;;23.30;93.10;;;;;;4323967;33;20083;-71
2021/06/16 02:31:35;;;;;;;5.40;2.70;;;23.30;93.30;;;;;;4322691;33;20090;-71
2021/06/16 02:34:01;;;;;;;8.75;2.75;;;23.40;91.30;;;;;;4309793;33;20171;-71
2021/06/16 02:36:28;;;;;;;7.47;2.80;;;23.40;91.10;;;;;;4312721;33;20075;-71
2021/06/16 02:38:58;;;;;;;4.68;2.60;;;23.20;91.70;;;;;;4321865;33;20071;-71
2021/06/16 02:41:25;;;;;;;6.07;2.80;;;23.30;90.30;;;;;;4309620;33;20064;-71
2021/06/16 02:43:51;;;;;;;6.80;2.33;;;23.30;90.70;;;;;;4309945;33;20075;-72
2021/06/16 02:46:17;;;;;;;5.12;2.42;;;23.30;90.80;;;;;;4309982;33;20600;-70
2021/06/16 02:48:47;;;;;;;3.97;2.25;;;23.30;88.70;;;;;;4321815;33;20516;-70
2021/06/16 02:51:13;;;;;;;4.87;2.30;;;23.30;90.40;;;;;;4310057;33;20071;-71
2021/06/16 02:53:43;;;;;;;4.95;2.30;;;23.40;88.20;;;;;;4333806;33;20059;-71
2021/06/16 02:56:09;;;;;;;4.75;2.50;;;23.30;90.10;;;;;;4322125;33;20159;-70
2021/06/16 02:58:38;;;;;;;7.60;2.80;;;23.30;89.90;;;;;;4322107;33;20070;-72
2021/06/16 03:01:07;;;;;;;7.00;2.83;;;23.30;89.10;;;;;;4309297;33;20145;-71
2021/06/16 03:03:33;;;;;;;7.70;2.53;;;23.30;89.40;;;;;;4321611;33;20465;-72
2021/06/16 03:05:59;;;;;;;10.77;2.70;;;23.30;90.30;;;;;;4309018;33;20080;-71
2021/06/16 03:08:27;;;;;;;5.72;2.42;;;23.30;90.20;;;;;;4309147;33;20089;-71
2021/06/16 03:10:53;;;;;;;4.43;2.50;;;23.30;90.60;;;;;;4321529;33;20155;-71
2021/06/16 03:13:19;;;;;;;4.97;2.65;;;23.30;90.10;;;;;;4309775;33;20074;-71
2021/06/16 03:15:46;;;;;;;6.70;3.15;;;23.30;91.00;;;;;;4321214;33;20085;-70
2021/06/16 03:18:14;;;;;;;12.35;3.08;;;23.40;91.50;;;;;;4324170;32;20075;-70
2021/06/16 03:20:40;;;;;;;4.97;2.60;;;23.40;91.80;;;;;;4323775;32;20070;-70
2021/06/16 03:25:42;;;;;;;8.02;3.37;;;23.50;92.20;;;;;;3833901;37;20067;-70
2021/06/16 03:28:08;;;;;;;4.60;2.37;;;23.60;92.50;;;;;;4366282;32;20531;-70
2021/06/16 03:30:35;;;;;;;6.15;2.95;;;23.60;93.30;;;;;;4378450;32;20084;-71
2021/06/16 03:33:01;;;;;;;13.68;3.03;;;23.70;93.30;;;;;;4377925;32;20062;-70
2021/06/16 03:35:27;;;;;;;7.30;3.12;;;23.70;94.10;;;;;;4353363;32;20086;-71
2021/06/16 03:37:54;;;;;;;7.30;2.67;;;23.80;94.60;;;;;;4363095;32;20520;-71
2021/06/16 03:40:21;;;;;;;6.35;2.58;;;23.80;94.50;;;;;;4350182;32;20521;-71
2021/06/16 03:42:48;;;;;;;6.07;2.47;;;23.90;94.60;;;;;;4375026;32;20067;-71
2021/06/16 03:45:15;;;;;;;7.15;2.62;;;24.00;94.90;;;;;;4363271;32;20093;-71
2021/06/16 03:47:44;;;;;;;5.62;2.55;;;24.20;95.10;;;;;;4363454;32;20209;-70
2021/06/16 03:50:15;;;;;;;8.70;2.78;;;24.20;96.20;;;;;;4338500;32;20448;-72
2021/06/16 03:52:41;;;;;;;6.95;2.65;;;24.20;96.00;;;;;;4354893;32;20141;-71
2021/06/16 03:55:08;;;;;;;9.57;3.22;;;24.20;97.40;;;;;;4348254;32;20081;-71
2021/06/16 03:57:34;;;;;;;5.22;2.33;;;24.20;98.70;;;;;;4347519;32;20173;-71
2021/06/16 04:00:02;;;;;;;4.95;1.30;;;24.10;99.80;;;;;;4335382;32;20082;-71
2021/06/16 04:02:28;;;;;;;7.80;3.35;;;24.10;99.90;;;;;;4347627;32;20078;-70
2021/06/16 04:04:54;;;;;;;13.65;3.50;;;24.20;99.90;;;;;;4347346;32;20528;-71
2021/06/16 04:07:21;;;;;;;7.85;2.78;;;24.30;99.90;;;;;;4348236;32;20149;-71
2021/06/16 04:09:52;;;;;;;7.95;2.80;;;24.60;99.90;;;;;;4335977;32;20077;-71
2021/06/16 04:12:19;;;;;;;8.15;2.42;;;24.30;99.90;;;;;;4348424;32;20187;-71
2021/06/16 04:14:46;;;;;;;7.62;2.80;;;24.40;99.90;;;;;;4338314;32;20070;-71
2021/06/16 04:17:12;;;;;;;7.85;3.00;;;24.50;99.90;;;;;;4355991;32;20077;-71
2021/06/16 04:19:39;;;;;;;10.07;3.12;;;24.50;99.90;;;;;;4362276;32;20093;-71
2021/06/16 04:22:05;;;;;;;8.63;2.75;;;24.70;99.90;;;;;;4362748;32;20089;-71
2021/06/16 04:24:31;;;;;;;8.60;2.67;;;24.90;99.90;;;;;;4359649;32;20070;-70
2021/06/16 04:26:57;;;;;;;8.13;2.60;;;25.00;99.90;;;;;;4360089;32;20228;-71
2021/06/16 04:29:23;;;;;;;6.90;3.10;;;25.80;99.50;;;;;;4359962;32;20082;-71
2021/06/16 04:31:50;;;;;;;6.80;2.97;;;27.70;90.30;;;;;;4372188;32;20089;-71
2021/06/16 04:34:16;;;;;;;6.80;3.17;;;28.00;84.40;;;;;;4359707;32;20093;-70
2021/06/16 04:36:42;;;;;;;14.15;3.40;;;27.30;90.00;;;;;;4351247;32;20074;-72
2021/06/16 04:39:08;;;;;;;13.05;3.28;;;26.90;91.60;;;;;;4350093;32;20082;-71
2021/06/16 04:41:36;;;;;;;10.23;3.05;;;27.20;87.70;;;;;;4349662;32;20108;-72
2021/06/16 04:44:02;;;;;;;9.68;3.00;;;26.90;86.80;;;;;;4337237;32;20081;-71
2021/06/16 04:46:28;;;;;;;12.43;3.03;;;27.80;83.40;;;;;;4349720;32;20082;-71
2021/06/16 04:48:54;;;;;;;8.02;3.08;;;28.30;80.80;;;;;;4349859;32;20156;-71
2021/06/16 04:51:21;;;;;;;9.55;3.37;;;28.10;79.30;;;;;;4349469;32;20165;-71
2021/06/16 04:53:47;;;;;;;9.75;3.10;;;28.40;79.30;;;;;;4349577;32;20078;-71
2021/06/16 04:56:13;;;;;;;8.40;3.10;;;28.30;77.90;;;;;;4336828;32;20554;-71
2021/06/16 04:58:39;;;;;;;10.13;3.22;;;28.20;80.40;;;;;;4337502;32;20082;-70
2021/06/16 05:01:05;;;;;;;6.68;2.97;;;27.50;86.90;;;;;;4349493;32;20154;-71
2021/06/16 05:03:31;;;;;;;8.43;3.37;;;27.50;86.00;;;;;;4361880;32;20070;-71
2021/06/16 05:05:57;;;;;;;6.70;3.15;;;28.10;84.00;;;;;;4325186;32;20098;-71
2021/06/16 05:08:23;;;;;;;8.20;2.83;;;27.10;89.50;;;;;;4361416;32;20078;-72
2021/06/16 05:10:50;;;;;;;9.95;3.47;;;26.80;91.70;;;;;;4349357;32;20083;-71
2021/06/16 05:13:26;;;;;;;11.90;3.08;;;27.30;89.60;;;;;;4349350;32;20102;-71
2021/06/16 05:15:53;;;;;;;9.27;3.20;;;27.40;91.20;;;;;;4337502;32;20075;-72
2021/06/16 05:18:19;;;;;;;5.82;2.87;;;28.30;83.60;;;;;;4349620;32;20101;-71
2021/06/16 05:20:45;;;;;;;7.30;2.90;;;27.60;83.60;;;;;;4349944;32;20090;-72
2021/06/16 05:23:12;;;;;;;8.00;2.90;;;27.90;80.10;;;;;;4337344;32;20097;-71
2021/06/16 05:25:41;;;;;;;10.25;2.78;;;27.80;84.20;;;;;;4336950;32;20070;-71
2021/06/16 05:28:09;;;;;;;8.77;3.00;;;27.90;80.50;;;;;;4325045;32;20497;-70
2021/06/16 05:30:36;;;;;;;10.35;2.87;;;27.90;79.30;;;;;;4361784;32;20217;-71
2021/06/16 05:33:11;;;;;;;12.43;2.83;;;28.40;80.70;;;;;;4349284;32;20074;-71
2021/06/16 05:35:38;;;;;;;8.98;3.37;;;28.10;78.60;;;;;;4336771;32;20093;-71
2021/06/16 05:38:04;;;;;;;11.70;3.30;;;27.80;81.20;;;;;;4363027;32;20074;-71
2021/06/16 05:40:30;;;;;;;6.25;2.53;;;28.10;79.50;;;;;;4348551;32;20146;-71
2021/06/16 05:42:57;;;;;;;9.95;3.25;;;28.80;76.50;;;;;;4337164;32;20481;-70
2021/06/16 05:45:23;;;;;;;9.15;3.20;;;28.40;79.00;;;;;;4361259;32;20078;-72
2021/06/16 05:47:49;;;;;;;9.25;2.83;;;29.30;74.30;;;;;;4360604;32;20166;-71
2021/06/16 05:50:15;;;;;;;5.05;2.47;;;29.40;74.80;;;;;;4336823;32;20070;-71
2021/06/16 05:52:42;;;;;;;6.70;2.80;;;29.60;71.90;;;;;;4349436;32;20081;-70
2021/06/16 05:55:08;;;;;;;11.30;3.28;;;28.80;79.00;;;;;;4361108;32;20098;-71
2021/06/16 05:57:34;;;;;;;8.18;3.45;;;28.90;79.70;;;;;;4349149;32;20520;-71
2021/06/16 06:00:01;;;;;;;10.32;2.97;;;28.60;78.80;;;;;;4350125;32;20156;-70
2021/06/16 06:02:27;;;;;;;9.50;3.50;;;29.00;78.70;;;;;;4337991;32;20524;-70
2021/06/16 06:04:53;;;;;;;8.52;3.90;;;27.60;89.60;;;;;;4336681;32;20239;-70
2021/06/16 06:07:20;;;;;;;11.20;3.67;;;27.40;92.60;;;;;;4348593;32;20071;-71
2021/06/16 06:09:46;;;;;;;14.23;4.20;;;28.00;90.70;;;;;;4348390;32;20066;-71
2021/06/16 06:12:13;;;;;;;9.63;3.50;;;28.70;86.00;;;;;;4348425;32;20074;-71
2021/06/16 06:14:39;;;;;;;8.55;4.00;;;27.20;94.40;;;;;;4360985;32;20150;-71
2021/06/16 06:17:05;;;;;;;7.85;3.20;;;27.80;93.40;;;;;;4348484;32;20526;-70
2021/06/16 06:19:31;;;;;;;9.73;3.55;;;28.20;93.20;;;;;;4361105;32;20146;-70
2021/06/16 06:21:58;;;;;;;12.05;3.45;;;28.60;91.70;;;;;;4360982;32;20459;-70
2021/06/16 06:24:24;;;;;;;12.30;3.92;;;28.70;92.10;;;;;;4357334;32;20083;-71
2021/06/16 06:26:50;;;;;;;10.25;3.50;;;28.50;93.50;;;;;;4322012;33;20076;-70
2021/06/16 06:29:16;;;;;;;11.05;3.60;;;28.40;93.20;;;;;;4333551;33;20075;-70
2021/06/16 06:31:42;;;;;;;6.22;3.00;;;27.10;99.60;;;;;;4346017;32;20075;-71
2021/06/16 06:34:09;;;;;;;8.13;3.60;;;26.40;99.90;;;;;;4321172;33;20173;-71
2021/06/16 06:36:35;;;;;;;7.72;3.30;;;26.50;99.90;;;;;;4331194;33;20081;-70
2021/06/16 06:39:01;;;;;;;9.60;3.45;;;26.70;99.90;;;;;;4306673;33;20089;-71
2021/06/16 06:41:28;;;;;;;8.10;3.42;;;26.40;99.90;;;;;;4318704;33;20521;-71
2021/06/16 06:43:54;;;;;;;9.77;3.60;;;26.30;99.90;;;;;;4306671;33;20579;-71
2021/06/16 06:46:20;;;;;;;9.52;3.95;;;26.30;99.90;;;;;;4318097;33;20550;-68
2021/06/16 06:48:46;;;;;;;11.00;4.00;;;26.40;99.90;;;;;;4306745;33;20142;-71
2021/06/16 06:51:13;;;;;;;6.78;3.35;;;26.20;99.90;;;;;;4318454;33;20086;-71
2021/06/16 06:53:39;;;;;;;11.65;4.03;;;26.50;99.90;;;;;;4330792;33;20162;-70
2021/06/16 06:56:05;;;;;;;11.45;4.05;;;26.60;99.90;;;;;;4318567;33;20082;-71
2021/06/16 06:58:31;;;;;;;7.28;3.85;;;26.00;99.90;;;;;;4318547;33;20577;-70
2021/06/16 07:00:58;;;;;;;12.85;4.55;;;26.20;99.90;;;;;;4306469;33;20150;-71
2021/06/16 07:03:24;;;;;;;8.13;3.37;;;26.50;99.90;;;;;;4318387;33;20190;-70
2021/06/16 07:05:50;;;;;;;9.82;3.67;;;26.50;99.90;;;;;;4318651;33;20059;-70
2021/06/16 07:08:16;;;;;;;6.93;3.05;;;26.70;99.90;;;;;;4330799;33;20095;-71
2021/06/16 07:10:43;;;;;;;13.13;3.70;;;26.70;99.90;;;;;;4318794;33;20089;-71
2021/06/16 07:13:09;;;;;;;7.10;3.62;;;26.80;99.90;;;;;;4323781;33;20160;-71
2021/06/16 07:15:35;;;;;;;5.95;3.67;;;26.60;99.90;;;;;;4329077;33;20525;-73
2021/06/16 07:18:02;;;;;;;10.50;3.90;;;27.30;99.90;;;;;;4317228;33;20140;-73
2021/06/16 07:20:28;;;;;;;3.53;2.67;;;26.70;99.90;;;;;;4321661;33;20105;-67
2021/06/16 07:22:54;;;;;;;12.05;3.97;;;27.00;99.90;;;;;;4320150;33;20087;-69
2021/06/16 07:25:21;;;;;;;7.72;3.10;;;26.80;99.90;;;;;;4341527;32;20142;-72
2021/06/16 07:27:47;;;;;;;8.48;3.00;;;26.80;99.90;;;;;;4338888;32;20086;-68
2021/06/16 07:30:14;;;;;;;5.93;3.47;;;26.50;99.90;;;;;;4347759;32;20161;-67
2021/06/16 07:32:41;;;;;;;11.52;4.15;;;27.00;99.90;;;;;;4329618;32;20098;-75
2021/06/16 07:35:08;;;;;;;7.85;3.42;;;27.30;99.90;;;;;;4341189;32;20145;-72
2021/06/16 07:37:35;;;;;;;7.30;3.30;;;27.70;99.90;;;;;;4331947;32;20082;-71
2021/06/16 07:40:02;;;;;;;8.77;3.30;;;27.80;99.90;;;;;;4349169;32;20082;-71
2021/06/16 07:42:29;;;;;;;9.15;3.42;;;27.30;99.90;;;;;;4330919;32;20164;-69
2021/06/16 07:44:55;;;;;;;8.27;3.28;;;27.40;99.90;;;;;;4336477;33;20091;-73
2021/06/16 07:47:21;;;;;;;5.25;3.42;;;26.90;99.90;;;;;;4349887;32;20054;-74
2021/06/16 07:49:47;;;;;;;10.40;3.65;;;27.30;99.90;;;;;;4343638;33;20098;-72
2021/06/16 07:52:13;;;;;;;9.75;3.58;;;27.60;99.90;;;;;;4350430;32;20142;-69
2021/06/16 07:54:40;;;;;;;7.25;3.20;;;27.30;99.90;;;;;;4347369;32;20067;-74
2021/06/16 07:57:06;;;;;;;11.68;3.85;;;27.20;99.90;;;;;;4346167;32;20059;-70
2021/06/16 07:59:32;;;;;;;7.50;3.90;;;27.50;99.90;;;;;;4346808;32;20461;-71
2021/06/16 08:01:59;;;;;;;9.23;3.85;;;27.30;99.90;;;;;;4327430;33;20071;-73
2021/06/16 08:04:25;;;;;;;5.35;3.47;;;27.50;99.90;;;;;;4351248;32;20078;-70
2021/06/16 08:06:51;;;;;;;14.50;3.95;;;27.60;99.90;;;;;;4335822;33;20109;-71
2021/06/16 08:09:18;;;;;;;9.32;3.65;;;27.40;99.90;;;;;;4342145;32;20531;-71
2021/06/16 08:11:45;;;;;;;6.80;3.53;;;27.00;99.90;;;;;;4325141;32;20083;-71
2021/06/16 08:14:11;;;;;;;8.02;3.40;;;27.70;99.90;;;;;;4344784;32;20062;-71
2021/06/16 08:16:37;;;;;;;7.20;3.65;;;27.50;99.90;;;;;;4340144;32;20158;-71
2021/06/16 08:19:04;;;;;;;7.03;3.72;;;27.20;99.90;;;;;;4353900;32;20071;-70
2021/06/16 08:21:30;;;;;;;8.85;4.00;;;27.20;99.90;;;;;;4335802;32;20509;-74
2021/06/16 08:23:56;;;;;;;8.48;3.78;;;27.10;99.90;;;;;;4328256;33;20522;-70
2021/06/16 08:26:22;;;;;;;5.28;3.28;;;27.50;99.90;;;;;;4323734;33;20084;-72
2021/06/16 08:28:48;;;;;;;8.02;3.60;;;27.70;99.90;;;;;;4315096;33;20082;-68
2021/06/16 08:31:15;;;;;;;7.53;3.12;;;27.80;99.90;;;;;;4331987;33;20074;-72
2021/06/16 08:33:41;;;;;;;4.47;3.00;;;27.50;99.90;;;;;;4332619;33;20082;-67
2021/06/16 08:36:08;;;;;;;12.68;3.55;;;27.70;99.90;;;;;;4339673;33;20114;-68
2021/06/16 08:38:34;;;;;;;7.78;3.72;;;28.30;99.20;;;;;;4331976;33;20083;-72
2021/06/16 08:41:06;;;;;;;11.45;3.55;;;28.20;99.80;;;;;;4333281;33;20087;-67
2021/06/16 08:43:51;;;;;;;7.90;4.22;;;27.90;99.90;;;;;;4321918;33;20073;-75
2021/06/16 08:46:17;;;;;;;7.80;3.37;;;27.90;99.50;;;;;;4331795;32;20061;-69
2021/06/16 08:48:44;;;;;;;7.75;3.55;;;27.90;97.80;;;;;;4332252;33;20533;-69
2021/06/16 08:51:15;;;;;;;6.60;3.53;;;27.90;97.50;;;;;;4327045;33;20082;-69
2021/06/16 08:53:44;;;;;;;7.03;3.20;;;28.10;95.50;;;;;;4333487;33;20079;-70
2021/06/16 08:56:11;;;;;;;5.05;3.60;;;28.10;95.00;;;;;;4342904;33;20071;-70
2021/06/16 08:58:39;;;;;;;11.15;3.72;;;28.30;95.10;;;;;;4346373;33;20097;-72
2021/06/16 09:01:10;;;;;;;8.40;3.45;;;28.20;94.30;;;;;;4334052;33;20141;-69
2021/06/16 09:03:37;;;;;;;6.18;3.47;;;28.10;94.60;;;;;;4315523;33;20153;-73
2021/06/16 09:06:11;;;;;;;5.32;3.03;;;28.20;96.40;;;;;;4307031;33;20052;-74
2021/06/16 09:09:03;;;;;;;6.78;3.22;;;28.10;93.80;;;;;;4331735;33;20074;-70
2021/06/16 09:11:49;;;;;;;8.13;3.37;;;28.30;93.70;;;;;;4336634;32;20111;-70
2021/06/16 09:14:23;;;;;;;7.47;3.25;;;28.20;95.90;;;;;;4340142;33;20087;-70
2021/06/16 09:16:50;;;;;;;5.15;4.00;;;28.10;96.30;;;;;;4326575;33;20090;-70
2021/06/16 09:19:30;;;;;;;6.85;3.33;;;28.50;95.60;;;;;;4322578;33;20082;-70
2021/06/16 09:22:06;;;;;;;6.68;3.30;;;28.10;95.20;;;;;;4319453;33;20059;-69
2021/06/16 09:24:46;;;;;;;7.37;3.37;;;28.10;95.30;;;;;;4319055;33;20099;-68
2021/06/16 09:27:51;;;;;;;8.50;3.70;;;28.10;95.60;;;;;;4332226;33;20465;-63
2021/06/16 09:30:23;;;;;;;6.85;3.62;;;28.50;92.60;;;;;;4329210;33;20081;-72
2021/06/16 09:33:07;;;;;;;6.00;3.30;;;28.60;92.30;;;;;;4349083;32;20501;-70
2021/06/16 09:35:36;;;;;;;6.20;3.37;;;28.10;92.10;;;;;;4336317;33;20059;-73
2021/06/16 09:38:07;;;;;;;7.20;3.25;;;28.30;91.10;;;;;;4328478;32;20532;-71
2021/06/16 09:40:39;;;;;;;9.52;3.40;;;28.40;90.40;;;;;;4339955;32;20115;-71
2021/06/16 09:43:12;;;;;;;6.95;3.60;;;28.70;91.00;;;;;;4328791;33;20067;-71
2021/06/16 09:45:40;;;;;;;8.68;3.67;;;28.60;90.00;;;;;;4322816;32;20153;-69
2021/06/16 09:48:27;;;;;;;4.87;3.65;;;28.60;88.00;;;;;;4338050;33;20660;-71
2021/06/16 09:51:15;;;;;;;5.22;3.17;;;28.90;80.60;;;;;;4331783;33;20095;-66
2021/06/16 09:54:17;;;;;;;8.10;3.60;;;28.40;86.10;;;;;;4332084;33;20094;-71
2021/06/16 09:56:59;;;;;;;7.72;3.78;;;28.40;86.50;;;;;;4330565;33;20071;-72
2021/06/16 09:59:36;;;;;;;10.38;3.67;;;28.90;84.80;;;;;;4340434;33;20153;-68
2021/06/16 10:02:02;;;;;;;6.28;3.42;;;29.10;83.20;;;;;;4325234;32;20146;-73
2021/06/16 10:04:44;;;;;;;7.50;3.75;;;29.00;88.80;;;;;;4328850;33;20106;-72
2021/06/16 10:07:18;;;;;;;8.30;3.97;;;29.30;90.60;;;;;;4338302;32;20079;-69
2021/06/16 10:10:01;;;;;;;8.00;3.85;;;28.40;92.20;;;;;;4315979;33;20078;-72
2021/06/16 10:12:35;;;;;;;8.25;3.65;;;28.40;94.40;;;;;;4343037;32;20067;-70
2021/06/16 10:15:09;;;;;;;10.05;3.85;;;28.70;93.00;;;;;;4323834;33;20075;-69
2021/06/16 10:17:36;;;;;;;6.82;3.87;;;28.40;93.50;;;;;;4333543;33;20098;-71
2021/06/16 10:20:04;;;;;;;7.65;3.50;;;28.80;89.70;;;;;;4338110;33;20070;-70
2021/06/16 10:22:31;;;;;;;7.62;3.78;;;29.00;87.10;;;;;;4341474;33;20079;-72
2021/06/16 10:24:57;;;;;;;8.48;3.50;;;28.80;87.40;;;;;;4330056;33;20102;-71
2021/06/16 10:27:30;;;;;;;6.20;4.12;;;28.50;88.20;;;;;;4324018;33;20098;-69
2021/06/16 10:30:13;;;;;;;5.80;3.60;;;28.70;87.80;;;;;;4308539;33;20106;-71
2021/06/16 10:32:47;;;;;;;9.48;4.07;;;28.60;89.50;;;;;;4315512;33;20075;-67
2021/06/16 10:35:15;;;;;;;9.35;4.03;;;28.90;86.70;;;;;;4327025;33;20101;-68
2021/06/16 10:37:43;;;;;;;8.43;3.75;;;28.80;85.20;;;;;;4328067;33;20075;-70
2021/06/16 10:40:19;;;;;;;8.30;3.62;;;28.50;83.80;;;;;;4324414;33;20176;-67
2021/06/16 10:43:05;;;;;;;6.43;3.50;;;28.70;76.70;;;;;;4340670;33;20109;-67
2021/06/16 10:45:49;;;;;;;8.05;3.70;;;28.20;81.70;;;;;;4334668;33;20078;-69
2021/06/16 10:48:15;;;;;;;7.43;3.53;;;28.70;79.30;;;;;;4308715;33;20090;-68
2021/06/16 10:50:48;;;;;;;5.90;3.50;;;28.20;78.90;;;;;;4321820;33;20496;-70
2021/06/16 10:53:19;;;;;;;9.07;3.33;;;28.00;81.10;;;;;;4328934;33;20678;-66
2021/06/16 10:55:54;;;;;;;5.68;3.28;;;28.60;75.10;;;;;;4306299;33;20075;-67
2021/06/16 10:58:25;;;;;;;6.47;3.55;;;28.10;78.20;;;;;;4317493;33;20094;-68
2021/06/16 11:01:17;;;;;;;6.60;3.37;;;28.10;79.60;;;;;;4317671;33;20073;-67
2021/06/16 11:03:46;;;;;;;8.55;3.53;;;28.30;77.00;;;;;;4294229;33;20105;-67
2021/06/16 11:06:34;;;;;;;8.18;3.35;;;28.30;75.50;;;;;;4330082;33;20063;-67
2021/06/16 11:09:08;;;;;;;4.35;3.10;;;28.50;74.50;;;;;;4332074;33;20091;-68
2021/06/16 11:12:00;;;;;;;5.25;3.60;;;28.50;74.50;;;;;;4325383;33;20151;-67
2021/06/16 11:14:36;;;;;;;7.15;3.42;;;29.10;73.00;;;;;;4334928;33;20069;-67
2021/06/16 11:17:09;;;;;;;9.02;3.80;;;28.90;71.70;;;;;;4330479;32;20078;-68
2021/06/16 11:19:35;;;;;;;5.93;3.40;;;28.80;69.40;;;;;;4305958;33;20153;-69
2021/06/16 11:22:14;;;;;;;7.20;3.00;;;28.80;70.70;;;;;;4334942;33;20244;-68
2021/06/16 11:25:18;;;;;;;6.40;3.00;;;28.70;70.30;;;;;;4323934;33;20063;-68
2021/06/16 11:27:56;;;;;;;6.60;3.08;;;28.40;71.40;;;;;;4333268;33;20571;-64
2021/06/16 11:30:35;;;;;;;6.90;3.60;;;28.40;72.90;;;;;;4331423;33;20468;-66
2021/06/16 11:33:19;;;;;;;5.90;3.50;;;28.80;71.10;;;;;;4325418;33;20099;-68
2021/06/16 11:35:49;;;;;;;8.00;3.35;;;28.50;72.80;;;;;;4331940;33;20169;-65
2021/06/16 11:38:19;;;;;;;6.80;3.50;;;28.40;74.30;;;;;;4320861;33;20082;-66
2021/06/16 11:41:03;;;;;;;12.82;3.65;;;28.40;73.80;;;;;;4345959;32;20510;-64
2021/06/16 11:43:59;;;;;;;11.95;3.15;;;28.60;74.50;;;;;;4331543;32;20442;-63
2021/06/16 11:46:29;;;;;;;5.12;3.25;;;28.60;72.10;;;;;;4323289;33;20090;-64
2021/06/16 11:49:11;;;;;;;6.18;3.45;;;28.10;73.90;;;;;;4322547;33;20531;-69
2021/06/16 11:51:58;;;;;;;5.35;3.30;;;28.10;74.00;;;;;;4304325;33;20532;-67
2021/06/16 11:54:36;;;;;;;;;;;28.40;75.00;;;;;;4334582;33;20151;-68
2021/06/16 11:57:09;;;;;;;7.97;3.47;;;28.70;71.00;;;;;;4333286;33;19966;-66
2021/06/16 11:59:52;;;;;;;7.25;3.42;;;29.00;69.90;;;;;;4328150;33;20082;-67
2021/06/16 12:02:28;;;;;;;6.45;3.35;;;28.80;70.00;;;;;;4319084;33;20160;-69
2021/06/16 12:05:02;;;;;;;4.62;3.12;;;28.60;69.30;;;;;;4296688;33;20087;-67
2021/06/16 12:07:33;;;;;;;7.60;3.50;;;28.80;69.50;;;;;;4311275;33;20071;-70
2021/06/16 12:10:03;;;;;;;5.85;3.35;;;28.70;66.30;;;;;;4315777;33;20074;-70
2021/06/16 12:12:51;;;;;;;5.68;3.60;;;28.60;68.30;;;;;;4320131;33;20124;-67
2021/06/16 12:15:23;;;;;;;9.32;3.42;;;28.80;66.80;;;;;;4341226;33;20082;-72
2021/06/16 12:18:01;;;;;;;5.37;3.62;;;29.00;65.80;;;;;;4324193;33;20445;-73
2021/06/16 12:20:54;;;;;;;7.62;3.58;;;28.80;65.80;;;;;;4320811;33;20083;-72
2021/06/16 12:23:37;;;;;;;5.57;3.25;;;29.00;66.50;;;;;;4327486;32;20120;-73
2021/06/16 12:26:18;;;;;;;5.70;3.58;;;28.90;64.40;;;;;;4338731;32;20610;-72
2021/06/16 12:28:55;;;;;;;9.43;3.42;;;29.10;64.60;;;;;;4322137;32;20062;-72
2021/06/16 12:31:41;;;;;;;8.23;3.37;;;29.20;61.90;;;;;;4344909;32;20093;-74
2021/06/16 12:35:26;;;;;;;6.20;3.33;;;28.90;62.00;;;;;;4337286;32;20163;-73
2021/06/16 12:37:17;;;;;;;8.57;3.80;;;28.90;61.50;;;;;;4328384;32;20070;-74
2021/06/16 12:40:01;;;;;;;8.48;3.30;;;29.10;59.20;;;;;;4340988;32;20071;-72
2021/06/16 12:42:41;;;;;;;6.97;3.40;;;29.40;58.40;;;;;;4331724;32;20070;-72
2021/06/16 12:45:41;;;;;;;8.63;3.67;;;29.60;58.50;;;;;;4340485;32;20892;-75
2021/06/16 12:48:16;;;;;;;6.18;3.60;;;29.80;56.80;;;;;;4341988;32;20109;-71
2021/06/16 12:50:51;;;;;;;6.82;3.33;;;29.00;56.60;;;;;;4365780;32;20070;-74
2021/06/16 12:53:18;;;;;;;8.18;3.37;;;29.30;57.30;;;;;;4343453;32;20110;-74
2021/06/16 12:55:56;;;;;;;6.68;3.45;;;29.50;56.20;;;;;;4346049;32;20067;-74
2021/06/16 12:58:23;;;;;;;5.28;3.12;;;29.10;55.70;;;;;;4331058;32;20497;-75
2021/06/16 13:00:56;;;;;;;3.97;3.25;;;29.30;56.40;;;;;;4337337;32;20085;-75
2021/06/16 13:03:25;;;;;;;5.65;3.62;;;29.50;55.30;;;;;;4331564;32;20216;-74
2021/06/16 13:05:57;;;;;;;5.72;3.30;;;29.10;56.00;;;;;;4342090;32;20477;-74